createdAt,value
2023-03-27T00:01:29.553Z,94955.59
2023-03-27T00:03:57.357Z,94960.03
2023-03-27T00:06:27.160Z,94957.81
2023-03-27T00:08:54.996Z,94961.75
2023-03-27T00:11:24.846Z,94964.59
2023-03-27T00:13:54.401Z,94965.84
2023-03-27T00:16:26.786Z,94963.97
2023-03-27T00:18:55.446Z,94965.56
2023-03-27T00:21:23.465Z,94960.66
2023-03-27T00:23:52.041Z,94957.97
2023-03-27T00:26:21.432Z,94967.47
2023-03-27T00:28:49.373Z,94967.47
2023-03-27T00:31:17.924Z,94965.56
2023-03-27T00:33:47.222Z,94963.03
2023-03-27T00:36:15.186Z,94968.69
2023-03-27T00:38:43.524Z,94966.34
2023-03-27T00:41:11.394Z,94965.56
2023-03-27T00:43:43.645Z,94967.63
2023-03-27T00:46:31.424Z,94958.47
2023-03-27T00:49:04.864Z,94967.88
2023-03-27T00:51:33.413Z,94962.06
2023-03-27T00:54:01.975Z,94966.81
2023-03-27T00:56:30.678Z,94969.78
2023-03-27T00:59:01.878Z,94973.78
2023-03-27T01:01:32.158Z,94973.09
2023-03-27T01:04:05.210Z,94968.22
2023-03-27T01:06:33.593Z,94967.88
2023-03-27T01:09:01.336Z,94959.84
2023-03-27T01:11:42.815Z,94959.06
2023-03-27T01:14:17.253Z,94966.97
2023-03-27T01:16:56.885Z,94972.47
2023-03-27T01:20:14.229Z,94978.47
2023-03-27T01:22:59.505Z,94972.00
2023-03-27T01:26:00.724Z,94963.00
2023-03-27T01:28:39.849Z,94964.56
2023-03-27T01:31:26.047Z,94970.88
2023-03-27T01:34:15.739Z,94971.66
2023-03-27T01:37:24.790Z,94982.72
2023-03-27T01:40:04.286Z,94990.28
2023-03-27T01:42:36.876Z,94987.97
2023-03-27T01:45:09.260Z,94991.44
2023-03-27T01:47:43.977Z,95001.38
2023-03-27T01:50:19.796Z,94995.53
2023-03-27T01:52:53.725Z,95003.56
2023-03-27T01:55:27.406Z,95000.22
2023-03-27T01:58:00.701Z,95000.88
2023-03-27T02:00:50.926Z,95006.38
2023-03-27T02:03:23.234Z,95000.22
2023-03-27T02:05:56.325Z,95000.06
2023-03-27T02:08:31.510Z,95002.13
2023-03-27T02:11:10.823Z,94998.50
2023-03-27T02:13:43.581Z,95009.56
2023-03-27T02:16:17.527Z,95012.41
2023-03-27T02:18:51.411Z,95011.91
2023-03-27T02:21:19.419Z,95017.28
2023-03-27T02:23:47.658Z,95011.59
2023-03-27T02:26:16.983Z,95019.66
2023-03-27T02:29:07.137Z,95019.31
2023-03-27T02:31:51.332Z,95017.13
2023-03-27T02:34:57.034Z,95017.91
2023-03-27T02:37:33.182Z,95028.50
2023-03-27T02:40:29.513Z,95031.97
2023-03-27T02:43:22.109Z,95026.75
2023-03-27T02:45:56.473Z,95028.63
2023-03-27T02:48:29.939Z,95038.09
2023-03-27T02:51:02.760Z,95042.06
2023-03-27T02:53:36.509Z,95047.56
2023-03-27T02:56:07.009Z,95047.72
2023-03-27T02:58:45.116Z,95048.50
2023-03-27T03:01:32.243Z,95055.94
2023-03-27T03:04:25.618Z,95062.25
2023-03-27T03:07:14.068Z,95070.75
2023-03-27T03:09:44.461Z,95079.47
2023-03-27T03:12:12.283Z,95078.97
2023-03-27T03:14:46.646Z,95096.53
2023-03-27T03:17:16.664Z,95088.94
2023-03-27T03:19:46.272Z,95101.22
2023-03-27T03:22:14.675Z,95106.91
2023-03-27T03:24:43.648Z,95120.31
2023-03-27T03:27:14.805Z,95136.69
2023-03-27T03:29:59.659Z,95147.75
2023-03-27T03:32:30.381Z,95156.72
2023-03-27T03:35:01.454Z,95159.06
2023-03-27T03:37:38.535Z,95169.28
2023-03-27T03:40:11.857Z,95176.88
2023-03-27T03:42:46.219Z,95178.72
2023-03-27T03:45:15.976Z,95182.69
2023-03-27T03:47:44.528Z,95181.88
2023-03-27T03:50:13.472Z,95191.66
2023-03-27T03:52:41.685Z,95204.13
2023-03-27T03:55:11.733Z,95216.84
2023-03-27T03:57:40.748Z,95235.81
2023-03-27T04:00:19.678Z,95236.72
2023-03-27T04:02:53.746Z,95238.09
2023-03-27T04:05:22.633Z,95247.72
2023-03-27T04:07:55.425Z,95263.28
2023-03-27T04:10:36.900Z,95273.91
2023-03-27T04:13:10.254Z,95275.56
2023-03-27T04:15:47.217Z,95276.59
2023-03-27T04:18:20.722Z,95283.13
2023-03-27T04:20:50.271Z,95296.06
2023-03-27T04:23:21.091Z,95291.72
2023-03-27T04:25:49.273Z,95306.81
2023-03-27T04:28:22.996Z,95320.50
2023-03-27T04:31:06.304Z,95336.28
2023-03-27T04:34:12.481Z,95339.28
2023-03-27T04:37:04.098Z,95354.56
2023-03-27T04:39:39.760Z,95361.41
2023-03-27T04:42:07.662Z,95354.06
2023-03-27T04:44:36.639Z,95366.34
2023-03-27T04:47:08.771Z,95376.88
2023-03-27T04:49:40.550Z,95381.72
2023-03-27T04:52:19.007Z,95385.59
2023-03-27T04:54:48.277Z,95398.31
2023-03-27T04:57:19.092Z,95403.84
2023-03-27T04:59:48.980Z,95422.66
2023-03-27T05:02:36.702Z,95423.53
2023-03-27T05:05:13.908Z,95431.56
2023-03-27T05:07:46.086Z,95445.00
2023-03-27T05:10:21.622Z,95449.38
2023-03-27T05:12:51.833Z,95449.19
2023-03-27T05:15:21.027Z,95456.69
2023-03-27T05:17:54.293Z,95464.75
2023-03-27T05:20:27.807Z,95477.09
2023-03-27T05:22:56.428Z,95485.28
2023-03-27T05:25:29.111Z,95491.50
2023-03-27T05:27:58.299Z,95503.28
2023-03-27T05:30:30.561Z,95501.16
2023-03-27T05:33:18.415Z,95516.25
2023-03-27T05:35:47.203Z,95517.00
2023-03-27T05:38:16.005Z,95533.09
2023-03-27T05:40:53.464Z,95535.84
2023-03-27T05:43:22.634Z,95544.44
2023-03-27T05:45:50.437Z,95542.19
2023-03-27T05:48:19.714Z,95558.31
2023-03-27T05:50:47.670Z,95564.19
2023-03-27T05:53:20.885Z,95573.91
2023-03-27T05:56:16.602Z,95579.03
2023-03-27T05:58:53.448Z,95594.81
2023-03-27T06:01:23.333Z,95597.09
2023-03-27T06:03:55.988Z,95613.28
2023-03-27T06:06:32.669Z,95617.59
2023-03-27T06:09:00.587Z,95628.91
2023-03-27T06:11:29.637Z,95635.34
2023-03-27T06:13:58.810Z,95638.59
2023-03-27T06:16:40.125Z,95658.44
2023-03-27T06:19:27.910Z,95658.53
2023-03-27T06:21:55.712Z,95674.91
2023-03-27T06:24:24.108Z,95684.22
2023-03-27T06:26:52.726Z,95688.44
2023-03-27T06:29:21.446Z,95697.78
2023-03-27T06:31:52.908Z,95689.44
2023-03-27T06:34:28.514Z,95698.44
2023-03-27T06:37:10.362Z,95713.84
2023-03-27T06:39:42.818Z,95724.13
2023-03-27T06:42:10.890Z,95727.63
2023-03-27T06:44:51.621Z,95726.59
2023-03-27T06:47:51.696Z,95729.84
2023-03-27T06:50:43.781Z,95735.75
2023-03-27T06:53:26.398Z,95744.22
2023-03-27T06:55:54.964Z,95750.94
2023-03-27T06:58:24.066Z,95757.28
2023-03-27T07:00:52.146Z,95763.75
2023-03-27T07:03:21.778Z,95774.16
2023-03-27T07:06:19.260Z,95780.69
2023-03-27T07:08:52.842Z,95789.16
2023-03-27T07:11:20.653Z,95792.38
2023-03-27T07:13:56.656Z,95792.88
2023-03-27T07:16:28.762Z,95798.44
2023-03-27T07:18:58.367Z,95798.72
2023-03-27T07:21:31.002Z,95822.19
2023-03-27T07:24:00.314Z,95819.47
2023-03-27T07:26:34.151Z,95830.94
2023-03-27T07:29:11.562Z,95838.94
2023-03-27T07:31:55.857Z,95850.97
2023-03-27T07:34:33.860Z,95860.59
2023-03-27T07:37:29.072Z,95867.00
2023-03-27T07:40:16.510Z,95877.22
2023-03-27T07:42:54.617Z,95878.53
2023-03-27T07:45:23.900Z,95904.22
2023-03-27T07:47:57.056Z,95898.63
2023-03-27T07:50:25.633Z,95905.28
2023-03-27T07:52:55.398Z,95917.28
2023-03-27T07:55:23.398Z,95917.25
2023-03-27T07:58:03.273Z,95928.47
2023-03-27T08:00:35.651Z,95934.31
2023-03-27T08:03:16.699Z,95949.53
2023-03-27T08:05:56.534Z,95945.47
2023-03-27T08:08:28.309Z,95946.25
2023-03-27T08:10:58.933Z,95945.34
2023-03-27T08:13:30.964Z,95951.72
2023-03-27T08:16:04.601Z,95956.72
2023-03-27T08:18:32.438Z,95970.94
2023-03-27T08:21:01.922Z,95965.63
2023-03-27T08:23:33.563Z,95978.97
2023-03-27T08:26:20.836Z,95986.66
2023-03-27T08:28:56.908Z,95994.41
2023-03-27T08:31:30.495Z,95999.25
2023-03-27T08:34:03.156Z,95995.91
2023-03-27T08:36:41.189Z,96004.91
2023-03-27T08:39:11.153Z,96016.16
2023-03-27T08:42:01.951Z,96020.34
2023-03-27T08:44:36.216Z,96023.69
2023-03-27T08:47:20.640Z,96030.53
2023-03-27T08:49:59.194Z,96038.22
2023-03-27T08:52:36.094Z,96056.50
2023-03-27T08:55:15.341Z,96055.25
2023-03-27T08:57:51.682Z,96061.25
2023-03-27T09:00:27.255Z,96069.72
2023-03-27T09:03:16.591Z,96077.13
2023-03-27T09:05:50.175Z,96076.03
2023-03-27T09:08:28.864Z,96084.09
2023-03-27T09:11:04.180Z,96079.56
2023-03-27T09:13:44.517Z,96109.00
2023-03-27T09:16:19.285Z,96112.75
2023-03-27T09:18:54.981Z,96098.94
2023-03-27T09:21:35.513Z,96101.13
2023-03-27T09:24:14.461Z,96107.16
2023-03-27T09:27:15.226Z,96123.59
2023-03-27T09:30:05.333Z,96119.13
2023-03-27T09:32:57.977Z,96136.75
2023-03-27T09:35:26.316Z,96134.03
2023-03-27T09:37:58.443Z,96142.41
2023-03-27T09:40:33.427Z,96143.75
2023-03-27T09:43:09.395Z,96153.38
2023-03-27T09:45:41.797Z,96163.63
2023-03-27T09:48:15.538Z,96167.06
2023-03-27T09:50:47.392Z,96159.91
2023-03-27T09:53:35.333Z,96171.53
2023-03-27T09:56:17.437Z,96172.03
2023-03-27T09:58:53.152Z,96180.75
2023-03-27T10:01:30.191Z,96179.91
2023-03-27T10:04:15.486Z,96182.78
2023-03-27T10:06:48.481Z,96188.53
2023-03-27T10:09:27.555Z,96186.91
2023-03-27T10:12:21.979Z,96193.41
2023-03-27T10:14:53.124Z,96195.91
2023-03-27T10:17:30.450Z,96201.03
2023-03-27T10:20:13.241Z,96207.78
2023-03-27T10:22:44.662Z,96210.63
2023-03-27T10:25:19.122Z,96211.59
2023-03-27T10:28:11.713Z,96212.16
2023-03-27T10:31:04.580Z,96222.56
2023-03-27T10:33:39.826Z,96223.59
2023-03-27T10:36:22.663Z,96226.03
2023-03-27T10:38:56.445Z,96236.47
2023-03-27T10:41:42.059Z,96224.28
2023-03-27T10:44:17.849Z,96225.50
2023-03-27T10:46:53.789Z,96238.19
2023-03-27T10:49:31.605Z,96244.03
2023-03-27T10:52:10.135Z,96238.41
2023-03-27T10:55:08.901Z,96240.53
2023-03-27T10:57:38.123Z,96229.53
2023-03-27T11:00:18.346Z,96234.75
2023-03-27T11:03:01.106Z,96240.47
2023-03-27T11:05:37.179Z,96240.28
2023-03-27T11:08:17.436Z,96242.91
2023-03-27T11:10:48.217Z,96235.19
2023-03-27T11:13:28.313Z,96235.66
2023-03-27T11:16:11.792Z,96239.91
2023-03-27T11:19:23.429Z,96235.25
2023-03-27T11:22:25.090Z,96256.19
2023-03-27T11:24:58.417Z,96260.78
2023-03-27T11:27:32.328Z,96260.63
2023-03-27T11:30:18.470Z,96250.16
2023-03-27T11:33:05.592Z,96247.28
2023-03-27T11:35:39.142Z,96250.63
2023-03-27T11:38:33.960Z,96253.84
2023-03-27T11:41:03.849Z,96261.31
2023-03-27T11:43:32.885Z,96254.59
2023-03-27T11:46:16.606Z,96249.75
2023-03-27T11:49:02.236Z,96260.16
2023-03-27T11:51:43.274Z,96269.50
2023-03-27T11:54:23.209Z,96274.91
2023-03-27T11:56:57.935Z,96262.28
2023-03-27T12:00:07.037Z,96278.47
2023-03-27T12:03:03.523Z,96281.91
2023-03-27T12:05:44.039Z,96288.38
2023-03-27T12:08:30.887Z,96288.81
2023-03-27T12:11:05.019Z,96294.97
2023-03-27T12:14:00.938Z,96309.53
2023-03-27T12:17:00.129Z,96300.84
2023-03-27T12:20:01.535Z,96296.75
2023-03-27T12:22:39.894Z,96298.88
2023-03-27T12:25:48.314Z,96284.66
2023-03-27T12:28:55.609Z,96297.34
2023-03-27T12:31:53.629Z,96299.06
2023-03-27T12:34:41.397Z,96306.88
2023-03-27T12:37:12.828Z,96311.16
2023-03-27T12:39:49.185Z,96311.59
2023-03-27T12:42:44.233Z,96305.69
2023-03-27T12:45:19.454Z,96302.34
2023-03-27T12:48:16.586Z,96302.91
2023-03-27T12:50:54.801Z,96306.41
2023-03-27T12:53:54.801Z,96314.13
2023-03-27T12:56:32.988Z,96308.53
2023-03-27T12:59:15.805Z,96309.59
2023-03-27T13:02:02.488Z,96313.59
2023-03-27T13:05:27.390Z,96312.81
2023-03-27T13:08:27.473Z,96316.41
2023-03-27T13:11:15.462Z,96309.91
2023-03-27T13:14:09.983Z,96310.91
2023-03-27T13:17:02.214Z,96307.09
2023-03-27T13:19:43.263Z,96322.31
2023-03-27T13:22:37.151Z,96329.91
2023-03-27T13:25:24.760Z,96332.22
2023-03-27T13:28:15.357Z,96322.59
2023-03-27T13:30:56.779Z,96325.09
2023-03-27T13:34:08.397Z,96317.09
2023-03-27T13:36:36.472Z,96319.69
2023-03-27T13:39:28.032Z,96321.31
2023-03-27T13:42:15.172Z,96322.47
2023-03-27T13:44:59.894Z,96341.97
2023-03-27T13:48:04.611Z,96375.06
2023-03-27T13:50:57.749Z,96380.59
2023-03-27T13:53:39.196Z,96368.44
2023-03-27T13:56:33.492Z,96367.22
2023-03-27T13:59:44.646Z,96358.47
2023-03-27T14:02:52.598Z,96351.75
2023-03-27T14:05:56.945Z,96359.66
2023-03-27T14:08:41.464Z,96351.66
2023-03-27T14:11:42.411Z,96353.25
2023-03-27T14:14:46.257Z,96367.16
2023-03-27T14:17:43.026Z,96367.53
2023-03-27T14:20:20.175Z,96357.28
2023-03-27T14:22:56.822Z,96368.09
2023-03-27T14:25:35.130Z,96365.31
2023-03-27T14:28:32.587Z,96378.97
2023-03-27T14:31:08.488Z,96386.84
2023-03-27T14:33:58.932Z,96376.13
2023-03-27T14:36:30.762Z,96384.50
2023-03-27T14:39:08.325Z,96388.44
2023-03-27T14:41:46.739Z,96394.91
2023-03-27T14:44:15.812Z,96398.00
2023-03-27T14:46:48.028Z,96399.41
2023-03-27T14:49:19.336Z,96389.47
2023-03-27T14:51:53.574Z,96388.38
2023-03-27T14:54:55.209Z,96394.75
2023-03-27T14:57:28.021Z,96390.88
2023-03-27T14:59:58.735Z,96389.91
2023-03-27T15:02:31.751Z,96389.50
2023-03-27T15:05:08.580Z,96401.81
2023-03-27T15:07:37.752Z,96390.03
2023-03-27T15:10:24.113Z,96398.16
2023-03-27T15:13:11.923Z,96390.88
2023-03-27T15:15:50.276Z,96396.09
2023-03-27T15:18:25.838Z,96400.88
2023-03-27T15:20:56.632Z,96403.78
2023-03-27T15:23:29.327Z,96402.69
2023-03-27T15:26:02.760Z,96410.22
2023-03-27T15:28:34.203Z,96407.84
2023-03-27T15:31:04.454Z,96414.59
2023-03-27T15:33:37.213Z,96423.53
2023-03-27T15:36:09.877Z,96429.16
2023-03-27T15:38:38.789Z,96443.28
2023-03-27T15:41:42.153Z,96434.38
2023-03-27T15:44:12.806Z,96434.78
2023-03-27T15:46:53.155Z,96441.91
2023-03-27T15:49:24.087Z,96445.75
2023-03-27T15:51:51.922Z,96444.03
2023-03-27T15:54:37.590Z,96438.94
2023-03-27T15:57:11.557Z,96451.09
2023-03-27T15:59:51.843Z,96447.88
2023-03-27T16:02:26.370Z,96460.06
2023-03-27T16:04:58.688Z,96464.66
2023-03-27T16:07:30.321Z,96456.06
2023-03-27T16:10:02.404Z,96452.03
2023-03-27T16:12:48.981Z,96458.78
2023-03-27T16:15:30.207Z,96451.31
2023-03-27T16:17:59.164Z,96459.38
2023-03-27T16:20:48.966Z,96456.94
2023-03-27T16:23:17.729Z,96456.94
2023-03-27T16:25:45.533Z,96458.56
2023-03-27T16:28:17.576Z,96463.09
2023-03-27T16:30:45.789Z,96466.03
2023-03-27T16:33:16.663Z,96465.19
2023-03-27T16:35:45.260Z,96468.91
2023-03-27T16:38:15.004Z,96471.59
2023-03-27T16:40:43.674Z,96481.25
2023-03-27T16:43:11.623Z,96486.31
2023-03-27T16:45:41.015Z,96482.56
2023-03-27T16:48:08.912Z,96482.31
2023-03-27T16:50:41.034Z,96480.16
2023-03-27T16:53:08.824Z,96484.16
2023-03-27T16:55:36.578Z,96492.75
2023-03-27T16:58:07.474Z,96492.78
2023-03-27T17:00:35.179Z,96494.94
2023-03-27T17:03:06.776Z,96501.66
2023-03-27T17:05:34.796Z,96505.91
2023-03-27T17:08:03.659Z,96498.69
2023-03-27T17:10:32.454Z,96507.81
2023-03-27T17:13:01.340Z,96508.09
2023-03-27T17:15:29.143Z,96513.72
2023-03-27T17:17:57.164Z,96520.97
2023-03-27T17:20:27.089Z,96522.88
2023-03-27T17:22:54.941Z,96533.03
2023-03-27T17:25:23.378Z,96537.59
2023-03-27T17:27:51.410Z,96535.25
2023-03-27T17:30:30.513Z,96537.13
2023-03-27T17:33:03.259Z,96536.88
2023-03-27T17:35:32.750Z,96535.25
2023-03-27T17:38:00.567Z,96531.53
2023-03-27T17:40:28.429Z,96541.69
2023-03-27T17:42:56.167Z,96551.34
2023-03-27T17:45:24.628Z,96597.16
2023-03-27T17:47:55.758Z,96612.91
2023-03-27T17:50:23.692Z,96615.22
2023-03-27T17:52:52.814Z,96621.28
2023-03-27T17:55:20.578Z,96607.47
2023-03-27T17:57:55.655Z,96597.91
2023-03-27T18:00:30.015Z,96602.91
2023-03-27T18:03:00.066Z,96599.34
2023-03-27T18:05:29.314Z,96603.59
2023-03-27T18:07:58.584Z,96593.59
2023-03-27T18:10:26.354Z,96598.84
2023-03-27T18:13:01.315Z,96600.19
2023-03-27T18:15:29.158Z,96611.09
2023-03-27T18:17:58.815Z,96612.00
2023-03-27T18:20:26.718Z,96606.38
2023-03-27T18:22:58.456Z,96597.22
2023-03-27T18:25:28.037Z,96608.63
2023-03-27T18:27:55.841Z,96611.22
2023-03-27T18:30:25.657Z,96604.81
2023-03-27T18:32:57.764Z,96621.56
2023-03-27T18:35:25.577Z,96615.59
2023-03-27T18:38:04.940Z,96621.34
2023-03-27T18:40:34.412Z,96614.91
2023-03-27T18:43:02.390Z,96618.03
2023-03-27T18:45:30.981Z,96609.97
2023-03-27T18:47:58.803Z,96615.00
2023-03-27T18:50:26.569Z,96625.34
2023-03-27T18:52:54.907Z,96626.31
2023-03-27T18:55:22.681Z,96633.69
2023-03-27T18:57:51.770Z,96631.69
2023-03-27T19:00:23.222Z,96642.84
2023-03-27T19:03:25.836Z,96640.09
2023-03-27T19:05:54.539Z,96644.81
2023-03-27T19:08:22.971Z,96645.84
2023-03-27T19:10:50.762Z,96653.38
2023-03-27T19:13:23.404Z,96652.66
2023-03-27T19:16:15.826Z,96658.63
2023-03-27T19:19:03.967Z,96652.66
2023-03-27T19:21:40.542Z,96652.31
2023-03-27T19:24:17.420Z,96652.56
2023-03-27T19:26:46.696Z,96656.84
2023-03-27T19:29:15.961Z,96662.16
2023-03-27T19:31:43.649Z,96659.50
2023-03-27T19:34:11.464Z,96664.34
2023-03-27T19:36:39.301Z,96678.78
2023-03-27T19:39:07.172Z,96668.69
2023-03-27T19:41:34.944Z,96674.75
2023-03-27T19:44:03.449Z,96682.31
2023-03-27T19:46:32.622Z,96674.91
2023-03-27T19:49:00.927Z,96675.63
2023-03-27T19:51:54.742Z,96672.97
2023-03-27T19:54:22.486Z,96676.53
2023-03-27T19:56:50.596Z,96673.78
2023-03-27T19:59:29.851Z,96678.31
2023-03-27T20:02:00.292Z,96673.53
2023-03-27T20:04:28.171Z,96669.09
2023-03-27T20:07:01.666Z,96673.31
2023-03-27T20:09:29.451Z,96672.47
2023-03-27T20:11:57.237Z,96682.56
2023-03-27T20:14:25.420Z,96677.81
2023-03-27T20:16:53.150Z,96674.28
2023-03-27T20:19:28.942Z,96674.09
2023-03-27T20:21:58.544Z,96676.63
2023-03-27T20:24:26.376Z,96674.34
2023-03-27T20:26:58.753Z,96673.44
2023-03-27T20:29:27.608Z,96683.09
2023-03-27T20:31:55.434Z,96679.16
2023-03-27T20:34:25.005Z,96680.28
2023-03-27T20:36:54.845Z,96681.97
2023-03-27T20:39:47.052Z,96686.50
2023-03-27T20:42:16.536Z,96674.53
2023-03-27T20:44:45.141Z,96678.50
2023-03-27T20:47:15.017Z,96676.81
2023-03-27T20:49:47.801Z,96684.09
2023-03-27T20:52:17.916Z,96676.91
2023-03-27T20:54:45.763Z,96680.03
2023-03-27T20:57:16.103Z,96691.88
2023-03-27T20:59:46.164Z,96686.88
2023-03-27T21:02:17.937Z,96698.97
2023-03-27T21:04:47.486Z,96695.28
2023-03-27T21:07:15.762Z,96697.81
2023-03-27T21:09:45.802Z,96698.59
2023-03-27T21:12:13.770Z,96699.00
2023-03-27T21:14:41.600Z,96699.78
2023-03-27T21:17:12.355Z,96693.19
2023-03-27T21:19:40.146Z,96698.56
2023-03-27T21:22:09.522Z,96702.25
2023-03-27T21:24:37.374Z,96709.97
2023-03-27T21:27:05.466Z,96702.31
2023-03-27T21:29:33.201Z,96704.22
2023-03-27T21:32:01.127Z,96711.03
2023-03-27T21:34:29.214Z,96726.22
2023-03-27T21:36:58.115Z,96720.41
2023-03-27T21:39:27.398Z,96717.91
2023-03-27T21:41:55.320Z,96718.47
2023-03-27T21:44:23.122Z,96723.81
2023-03-27T21:46:51.025Z,96723.97
2023-03-27T21:49:18.866Z,96731.63
2023-03-27T21:51:46.617Z,96733.63
2023-03-27T21:54:14.407Z,96737.56
2023-03-27T21:56:43.559Z,96737.09
2023-03-27T21:59:11.341Z,96739.25
2023-03-27T22:01:39.119Z,96743.78
2023-03-27T22:04:06.899Z,96740.31
2023-03-27T22:06:34.673Z,96741.50
2023-03-27T22:09:02.428Z,96742.41
2023-03-27T22:11:30.272Z,96742.53
2023-03-27T22:13:59.838Z,96742.13
2023-03-27T22:16:27.751Z,96744.25
2023-03-27T22:18:55.711Z,96746.59
2023-03-27T22:21:25.784Z,96749.13
2023-03-27T22:23:55.252Z,96754.31
2023-03-27T22:26:25.292Z,96749.38
2023-03-27T22:28:53.200Z,96754.09
2023-03-27T22:31:23.103Z,96750.03
2023-03-27T22:33:51.574Z,96765.41
2023-03-27T22:36:20.076Z,96761.00
2023-03-27T22:38:47.862Z,96759.59
2023-03-27T22:41:15.831Z,96769.31
2023-03-27T22:43:43.628Z,96776.28
2023-03-27T22:46:13.624Z,96771.84
2023-03-27T22:48:43.236Z,96777.09
2023-03-27T22:51:12.332Z,96781.91
2023-03-27T22:53:40.896Z,96783.53
2023-03-27T22:56:09.926Z,96779.66
2023-03-27T22:58:38.052Z,96781.69
2023-03-27T23:01:07.620Z,96780.56
2023-03-27T23:03:35.590Z,96780.97
2023-03-27T23:06:05.480Z,96778.84
2023-03-27T23:08:33.435Z,96785.81
2023-03-27T23:11:03.321Z,96787.50
2023-03-27T23:13:32.674Z,96778.50
2023-03-27T23:16:01.090Z,96788.44
2023-03-27T23:18:29.173Z,96785.22
2023-03-27T23:20:57.579Z,96786.38
2023-03-27T23:23:27.435Z,96794.25
2023-03-27T23:25:55.307Z,96786.78
2023-03-27T23:28:23.063Z,96800.16
2023-03-27T23:30:54.969Z,96802.22
2023-03-27T23:33:24.859Z,96802.69
2023-03-27T23:35:53.426Z,96806.63
2023-03-27T23:38:21.381Z,96817.34
2023-03-27T23:40:57.592Z,96810.66
2023-03-27T23:43:26.628Z,96815.09
2023-03-27T23:45:55.518Z,96825.66
2023-03-27T23:48:24.032Z,96821.72
2023-03-27T23:50:53.125Z,96826.34
2023-03-27T23:53:21.170Z,96836.19
2023-03-27T23:55:49.389Z,96835.84
2023-03-27T23:58:18.528Z,96836.91
